sensor_id;sensor_type;location;lat;lon;timestamp;temperature;humidity
6988;DHT22;3534;49.960;8.018;2024-03-07T00:01:11;10.60;99.90
6988;DHT22;3534;49.960;8.018;2024-03-07T00:03:39;10.60;99.90
6988;DHT22;3534;49.960;8.018;2024-03-07T00:06:05;10.50;99.90
6988;DHT22;3534;49.960;8.018;2024-03-07T00:08:34;10.40;99.90
6988;DHT22;3534;49.960;8.018;2024-03-07T00:11:01;10.40;99.90
6988;DHT22;3534;49.960;8.018;2024-03-07T00:13:28;10.30;99.90
6988;DHT22;3534;49.960;8.018;2024-03-07T00:15:56;10.30;99.90
6988;DHT22;3534;49.960;8.018;2024-03-07T00:18:22;10.20;99.90
6988;DHT22;3534;49.960;8.018;2024-03-07T00:20:50;10.20;99.90
6988;DHT22;3534;49.960;8.018;2024-03-07T00:23:17;10.10;99.90
6988;DHT22;3534;49.960;8.018;2024-03-07T00:25:44;10.10;99.90
6988;DHT22;3534;49.960;8.018;2024-03-07T00:28:12;10.00;99.90
6988;DHT22;3534;49.960;8.018;2024-03-07T00:30:38;9.90;99.90
6988;DHT22;3534;49.960;8.018;2024-03-07T00:33:05;9.90;99.90
6988;DHT22;3534;49.960;8.018;2024-03-07T00:35:33;9.80;99.90
6988;DHT22;3534;49.960;8.018;2024-03-07T00:38:01;9.70;99.90
6988;DHT22;3534;49.960;8.018;2024-03-07T00:40:28;9.70;99.90
6988;DHT22;3534;49.960;8.018;2024-03-07T00:42:55;9.70;99.90
6988;DHT22;3534;49.960;8.018;2024-03-07T00:45:21;9.60;99.90
6988;DHT22;3534;49.960;8.018;2024-03-07T00:47:48;9.60;99.90
6988;DHT22;3534;49.960;8.018;2024-03-07T00:50:15;9.60;99.90
6988;DHT22;3534;49.960;8.018;2024-03-07T00:52:42;9.50;99.90
6988;DHT22;3534;49.960;8.018;2024-03-07T00:55:10;9.50;99.90
6988;DHT22;3534;49.960;8.018;2024-03-07T00:57:36;9.40;99.90
6988;DHT22;3534;49.960;8.018;2024-03-07T01:00:04;9.40;99.90
6988;DHT22;3534;49.960;8.018;2024-03-07T01:02:31;9.30;99.90
6988;DHT22;3534;49.960;8.018;2024-03-07T01:04:57;9.30;99.90
6988;DHT22;3534;49.960;8.018;2024-03-07T01:07:24;9.20;99.90
6988;DHT22;3534;49.960;8.018;2024-03-07T01:09:53;9.20;99.90
6988;DHT22;3534;49.960;8.018;2024-03-07T01:12:21;9.10;99.90
6988;DHT22;3534;49.960;8.018;2024-03-07T01:14:49;9.10;99.90
6988;DHT22;3534;49.960;8.018;2024-03-07T01:17:16;9.10;99.90
6988;DHT22;3534;49.960;8.018;2024-03-07T01:19:43;9.00;99.90
6988;DHT22;3534;49.960;8.018;2024-03-07T01:22:09;9.00;99.90
6988;DHT22;3534;49.960;8.018;2024-03-07T01:24:36;9.00;99.90
6988;DHT22;3534;49.960;8.018;2024-03-07T01:27:03;8.90;99.90
6988;DHT22;3534;49.960;8.018;2024-03-07T01:29:31;8.90;99.90
6988;DHT22;3534;49.960;8.018;2024-03-07T01:31:57;8.90;99.90
6988;DHT22;3534;49.960;8.018;2024-03-07T01:34:24;8.80;99.90
6988;DHT22;3534;49.960;8.018;2024-03-07T01:36:51;8.80;99.90
6988;DHT22;3534;49.960;8.018;2024-03-07T01:39:17;8.80;99.90
6988;DHT22;3534;49.960;8.018;2024-03-07T01:41:45;8.70;99.90
6988;DHT22;3534;49.960;8.018;2024-03-07T01:44:11;8.70;99.90
6988;DHT22;3534;49.960;8.018;2024-03-07T01:46:40;8.70;99.90
6988;DHT22;3534;49.960;8.018;2024-03-07T01:49:08;8.60;99.90
6988;DHT22;3534;49.960;8.018;2024-03-07T01:51:35;8.60;99.90
6988;DHT22;3534;49.960;8.018;2024-03-07T01:54:02;8.60;99.90
6988;DHT22;3534;49.960;8.018;2024-03-07T01:56:29;8.60;99.90
6988;DHT22;3534;49.960;8.018;2024-03-07T01:58:56;8.50;99.90
6988;DHT22;3534;49.960;8.018;2024-03-07T02:01:24;8.50;99.90
6988;DHT22;3534;49.960;8.018;2024-03-07T02:03:53;8.50;99.90
6988;DHT22;3534;49.960;8.018;2024-03-07T02:06:19;8.40;99.90
6988;DHT22;3534;49.960;8.018;2024-03-07T02:08:46;8.40;99.90
6988;DHT22;3534;49.960;8.018;2024-03-07T02:11:13;8.40;99.90
6988;DHT22;3534;49.960;8.018;2024-03-07T02:13:39;8.30;99.90
6988;DHT22;3534;49.960;8.018;2024-03-07T02:16:06;8.30;99.90
6988;DHT22;3534;49.960;8.018;2024-03-07T02:18:34;8.30;99.90
6988;DHT22;3534;49.960;8.018;2024-03-07T02:21:07;8.30;99.90
6988;DHT22;3534;49.960;8.018;2024-03-07T02:23:34;8.30;99.90
6988;DHT22;3534;49.960;8.018;2024-03-07T02:26:01;8.30;99.90
6988;DHT22;3534;49.960;8.018;2024-03-07T02:28:28;8.30;99.90
6988;DHT22;3534;49.960;8.018;2024-03-07T02:30:55;8.30;99.90
6988;DHT22;3534;49.960;8.018;2024-03-07T02:33:22;8.30;99.90
6988;DHT22;3534;49.960;8.018;2024-03-07T02:35:48;8.30;99.90
6988;DHT22;3534;49.960;8.018;2024-03-07T02:38:17;8.20;99.90
6988;DHT22;3534;49.960;8.018;2024-03-07T02:40:45;8.20;99.90
6988;DHT22;3534;49.960;8.018;2024-03-07T02:43:12;8.10;99.90
6988;DHT22;3534;49.960;8.018;2024-03-07T02:45:39;8.10;99.90
6988;DHT22;3534;49.960;8.018;2024-03-07T02:48:06;8.10;99.90
6988;DHT22;3534;49.960;8.018;2024-03-07T02:50:35;8.00;99.90
6988;DHT22;3534;49.960;8.018;2024-03-07T02:53:03;8.00;99.90
6988;DHT22;3534;49.960;8.018;2024-03-07T02:55:31;8.00;99.90
6988;DHT22;3534;49.960;8.018;2024-03-07T02:57:59;8.10;99.90
6988;DHT22;3534;49.960;8.018;2024-03-07T03:00:25;8.00;99.90
6988;DHT22;3534;49.960;8.018;2024-03-07T03:02:55;8.00;99.90
6988;DHT22;3534;49.960;8.018;2024-03-07T03:05:22;8.00;99.90
6988;DHT22;3534;49.960;8.018;2024-03-07T03:07:48;8.00;99.90
6988;DHT22;3534;49.960;8.018;2024-03-07T03:10:21;8.00;99.90
6988;DHT22;3534;49.960;8.018;2024-03-07T03:12:53;8.00;99.90
6988;DHT22;3534;49.960;8.018;2024-03-07T03:15:20;8.00;99.90
6988;DHT22;3534;49.960;8.018;2024-03-07T03:17:46;8.00;99.90
6988;DHT22;3534;49.960;8.018;2024-03-07T03:20:13;8.00;99.90
6988;DHT22;3534;49.960;8.018;2024-03-07T03:22:50;8.00;99.90
6988;DHT22;3534;49.960;8.018;2024-03-07T03:25:17;8.00;99.90
6988;DHT22;3534;49.960;8.018;2024-03-07T03:27:44;8.00;99.90
6988;DHT22;3534;49.960;8.018;2024-03-07T03:30:12;8.00;99.90
6988;DHT22;3534;49.960;8.018;2024-03-07T03:32:39;8.00;99.90
6988;DHT22;3534;49.960;8.018;2024-03-07T03:35:07;7.90;99.90
6988;DHT22;3534;49.960;8.018;2024-03-07T03:37:39;7.90;99.90
6988;DHT22;3534;49.960;8.018;2024-03-07T03:40:06;7.90;99.90
6988;DHT22;3534;49.960;8.018;2024-03-07T03:42:34;7.90;99.90
6988;DHT22;3534;49.960;8.018;2024-03-07T03:45:02;7.90;99.90
6988;DHT22;3534;49.960;8.018;2024-03-07T03:47:33;7.90;99.90
6988;DHT22;3534;49.960;8.018;2024-03-07T03:50:01;7.80;99.90
6988;DHT22;3534;49.960;8.018;2024-03-07T03:52:28;7.80;99.90
6988;DHT22;3534;49.960;8.018;2024-03-07T03:54:56;7.80;99.90
6988;DHT22;3534;49.960;8.018;2024-03-07T03:57:22;7.80;99.90
6988;DHT22;3534;49.960;8.018;2024-03-07T03:59:49;7.80;99.90
6988;DHT22;3534;49.960;8.018;2024-03-07T04:02:16;7.70;99.90
6988;DHT22;3534;49.960;8.018;2024-03-07T04:04:44;7.60;99.90
6988;DHT22;3534;49.960;8.018;2024-03-07T04:07:11;7.60;99.90
6988;DHT22;3534;49.960;8.018;2024-03-07T04:09:38;7.50;99.90
6988;DHT22;3534;49.960;8.018;2024-03-07T04:12:05;7.50;99.90
6988;DHT22;3534;49.960;8.018;2024-03-07T04:14:36;7.50;99.90
6988;DHT22;3534;49.960;8.018;2024-03-07T04:17:03;7.50;99.90
6988;DHT22;3534;49.960;8.018;2024-03-07T04:19:32;7.40;99.90
6988;DHT22;3534;49.960;8.018;2024-03-07T04:22:00;7.30;99.90
6988;DHT22;3534;49.960;8.018;2024-03-07T04:24:28;7.10;99.90
6988;DHT22;3534;49.960;8.018;2024-03-07T04:26:55;7.00;99.90
6988;DHT22;3534;49.960;8.018;2024-03-07T04:29:22;7.00;99.90
6988;DHT22;3534;49.960;8.018;2024-03-07T04:31:48;7.00;99.90
6988;DHT22;3534;49.960;8.018;2024-03-07T04:34:16;7.10;99.90
6988;DHT22;3534;49.960;8.018;2024-03-07T04:36:42;7.10;99.90
6988;DHT22;3534;49.960;8.018;2024-03-07T04:39:10;7.10;99.90
6988;DHT22;3534;49.960;8.018;2024-03-07T04:41:48;7.20;99.90
6988;DHT22;3534;49.960;8.018;2024-03-07T04:44:15;7.20;99.90
6988;DHT22;3534;49.960;8.018;2024-03-07T04:46:41;7.30;99.90
6988;DHT22;3534;49.960;8.018;2024-03-07T04:49:09;7.30;99.90
6988;DHT22;3534;49.960;8.018;2024-03-07T04:51:36;7.40;99.90
6988;DHT22;3534;49.960;8.018;2024-03-07T04:54:03;7.40;99.90
6988;DHT22;3534;49.960;8.018;2024-03-07T04:56:31;7.40;99.90
6988;DHT22;3534;49.960;8.018;2024-03-07T04:58:57;7.50;99.90
6988;DHT22;3534;49.960;8.018;2024-03-07T05:01:24;7.50;99.90
6988;DHT22;3534;49.960;8.018;2024-03-07T05:03:51;7.60;99.90
6988;DHT22;3534;49.960;8.018;2024-03-07T05:06:18;7.60;99.90
6988;DHT22;3534;49.960;8.018;2024-03-07T05:08:46;7.60;99.90
6988;DHT22;3534;49.960;8.018;2024-03-07T05:11:13;7.60;99.90
6988;DHT22;3534;49.960;8.018;2024-03-07T05:13:41;7.70;99.90
6988;DHT22;3534;49.960;8.018;2024-03-07T05:16:08;7.70;99.90
6988;DHT22;3534;49.960;8.018;2024-03-07T05:18:34;7.70;99.90
6988;DHT22;3534;49.960;8.018;2024-03-07T05:21:01;7.70;99.90
6988;DHT22;3534;49.960;8.018;2024-03-07T05:23:48;7.70;99.90
6988;DHT22;3534;49.960;8.018;2024-03-07T05:26:15;7.60;99.90
6988;DHT22;3534;49.960;8.018;2024-03-07T05:28:43;7.60;99.90
6988;DHT22;3534;49.960;8.018;2024-03-07T05:31:10;7.60;99.90
6988;DHT22;3534;49.960;8.018;2024-03-07T05:33:37;7.50;99.90
6988;DHT22;3534;49.960;8.018;2024-03-07T05:36:06;7.50;99.90
6988;DHT22;3534;49.960;8.018;2024-03-07T05:38:40;7.50;99.90
6988;DHT22;3534;49.960;8.018;2024-03-07T05:41:09;7.40;99.90
6988;DHT22;3534;49.960;8.018;2024-03-07T05:43:36;7.50;99.90
6988;DHT22;3534;49.960;8.018;2024-03-07T05:46:04;7.50;99.90
6988;DHT22;3534;49.960;8.018;2024-03-07T05:48:32;7.40;99.90
6988;DHT22;3534;49.960;8.018;2024-03-07T05:50:59;7.50;99.90
6988;DHT22;3534;49.960;8.018;2024-03-07T05:53:26;7.50;99.90
6988;DHT22;3534;49.960;8.018;2024-03-07T05:55:53;7.50;99.90
6988;DHT22;3534;49.960;8.018;2024-03-07T05:58:20;7.40;99.90
6988;DHT22;3534;49.960;8.018;2024-03-07T06:00:47;7.40;99.90
6988;DHT22;3534;49.960;8.018;2024-03-07T06:03:16;7.40;99.90
6988;DHT22;3534;49.960;8.018;2024-03-07T06:05:45;7.30;99.90
6988;DHT22;3534;49.960;8.018;2024-03-07T06:08:14;7.30;99.90
6988;DHT22;3534;49.960;8.018;2024-03-07T06:10:41;7.30;99.90
6988;DHT22;3534;49.960;8.018;2024-03-07T06:13:08;7.30;99.90
6988;DHT22;3534;49.960;8.018;2024-03-07T06:15:37;7.30;99.90
6988;DHT22;3534;49.960;8.018;2024-03-07T06:18:04;7.30;99.90
6988;DHT22;3534;49.960;8.018;2024-03-07T06:20:32;7.30;99.90
6988;DHT22;3534;49.960;8.018;2024-03-07T06:23:00;7.30;99.90
6988;DHT22;3534;49.960;8.018;2024-03-07T06:25:29;7.30;99.90
6988;DHT22;3534;49.960;8.018;2024-03-07T06:28:02;7.30;99.90
6988;DHT22;3534;49.960;8.018;2024-03-07T06:30:34;7.30;99.90
6988;DHT22;3534;49.960;8.018;2024-03-07T06:33:02;7.40;99.90
6988;DHT22;3534;49.960;8.018;2024-03-07T06:35:29;7.40;99.90
6988;DHT22;3534;49.960;8.018;2024-03-07T06:37:57;7.40;99.90
6988;DHT22;3534;49.960;8.018;2024-03-07T06:40:24;7.40;99.90
6988;DHT22;3534;49.960;8.018;2024-03-07T06:42:50;7.40;99.90
6988;DHT22;3534;49.960;8.018;2024-03-07T06:45:18;7.40;99.90
6988;DHT22;3534;49.960;8.018;2024-03-07T06:47:45;7.20;99.90
6988;DHT22;3534;49.960;8.018;2024-03-07T06:50:12;7.20;99.90
6988;DHT22;3534;49.960;8.018;2024-03-07T06:52:45;7.20;99.90
6988;DHT22;3534;49.960;8.018;2024-03-07T06:55:14;7.20;99.90
6988;DHT22;3534;49.960;8.018;2024-03-07T06:57:42;7.20;99.90
6988;DHT22;3534;49.960;8.018;2024-03-07T07:00:10;7.30;99.90
6988;DHT22;3534;49.960;8.018;2024-03-07T07:02:37;7.30;99.90
6988;DHT22;3534;49.960;8.018;2024-03-07T07:05:05;7.40;99.90
6988;DHT22;3534;49.960;8.018;2024-03-07T07:07:36;7.40;99.90
6988;DHT22;3534;49.960;8.018;2024-03-07T07:10:04;7.40;99.90
6988;DHT22;3534;49.960;8.018;2024-03-07T07:12:35;7.50;99.90
6988;DHT22;3534;49.960;8.018;2024-03-07T07:15:02;7.50;99.90
6988;DHT22;3534;49.960;8.018;2024-03-07T07:17:29;7.50;99.90
6988;DHT22;3534;49.960;8.018;2024-03-07T07:19:57;7.50;99.90
6988;DHT22;3534;49.960;8.018;2024-03-07T07:22:25;7.50;99.90
6988;DHT22;3534;49.960;8.018;2024-03-07T07:24:51;7.40;99.90
6988;DHT22;3534;49.960;8.018;2024-03-07T07:27:18;7.40;99.90
6988;DHT22;3534;49.960;8.018;2024-03-07T07:29:46;7.30;99.90
6988;DHT22;3534;49.960;8.018;2024-03-07T07:32:13;7.40;99.90
6988;DHT22;3534;49.960;8.018;2024-03-07T07:34:40;7.50;99.90
6988;DHT22;3534;49.960;8.018;2024-03-07T07:37:08;7.60;99.90
6988;DHT22;3534;49.960;8.018;2024-03-07T07:39:35;7.70;99.90
6988;DHT22;3534;49.960;8.018;2024-03-07T07:42:02;7.70;99.90
6988;DHT22;3534;49.960;8.018;2024-03-07T07:44:29;7.80;99.90
6988;DHT22;3534;49.960;8.018;2024-03-07T07:46:57;7.90;99.90
6988;DHT22;3534;49.960;8.018;2024-03-07T07:49:24;7.90;99.90
6988;DHT22;3534;49.960;8.018;2024-03-07T07:51:51;7.90;99.90
6988;DHT22;3534;49.960;8.018;2024-03-07T07:54:19;7.90;99.90
6988;DHT22;3534;49.960;8.018;2024-03-07T07:56:45;8.00;99.90
6988;DHT22;3534;49.960;8.018;2024-03-07T07:59:13;8.00;99.90
6988;DHT22;3534;49.960;8.018;2024-03-07T08:01:40;8.00;99.90
6988;DHT22;3534;49.960;8.018;2024-03-07T08:04:09;8.10;99.90
6988;DHT22;3534;49.960;8.018;2024-03-07T08:06:36;8.10;99.90
6988;DHT22;3534;49.960;8.018;2024-03-07T08:09:03;8.10;99.90
6988;DHT22;3534;49.960;8.018;2024-03-07T08:11:32;8.20;99.90
6988;DHT22;3534;49.960;8.018;2024-03-07T08:13:59;8.10;99.90
6988;DHT22;3534;49.960;8.018;2024-03-07T08:16:26;8.10;99.90
6988;DHT22;3534;49.960;8.018;2024-03-07T08:18:53;8.10;99.90
6988;DHT22;3534;49.960;8.018;2024-03-07T08:21:22;8.20;99.90
6988;DHT22;3534;49.960;8.018;2024-03-07T08:23:49;8.20;99.90
6988;DHT22;3534;49.960;8.018;2024-03-07T08:26:16;8.40;99.90
6988;DHT22;3534;49.960;8.018;2024-03-07T08:28:42;8.40;99.90
6988;DHT22;3534;49.960;8.018;2024-03-07T08:31:09;8.40;99.90
6988;DHT22;3534;49.960;8.018;2024-03-07T08:33:36;8.40;99.90
6988;DHT22;3534;49.960;8.018;2024-03-07T08:36:03;8.40;99.90
6988;DHT22;3534;49.960;8.018;2024-03-07T08:38:31;8.50;99.90
6988;DHT22;3534;49.960;8.018;2024-03-07T08:40:58;8.70;99.90
6988;DHT22;3534;49.960;8.018;2024-03-07T08:43:25;8.70;99.90
6988;DHT22;3534;49.960;8.018;2024-03-07T08:45:53;8.70;99.90
6988;DHT22;3534;49.960;8.018;2024-03-07T08:48:19;8.70;99.90
6988;DHT22;3534;49.960;8.018;2024-03-07T08:50:47;8.80;99.90
6988;DHT22;3534;49.960;8.018;2024-03-07T08:53:14;8.80;99.90
6988;DHT22;3534;49.960;8.018;2024-03-07T08:55:42;8.90;99.90
6988;DHT22;3534;49.960;8.018;2024-03-07T08:58:09;8.90;99.90
6988;DHT22;3534;49.960;8.018;2024-03-07T09:00:36;8.90;99.90
6988;DHT22;3534;49.960;8.018;2024-03-07T09:03:03;8.80;99.90
6988;DHT22;3534;49.960;8.018;2024-03-07T09:05:35;8.80;99.90
6988;DHT22;3534;49.960;8.018;2024-03-07T09:08:02;8.90;99.90
6988;DHT22;3534;49.960;8.018;2024-03-07T09:10:29;8.90;99.90
6988;DHT22;3534;49.960;8.018;2024-03-07T09:12:57;9.00;99.90
6988;DHT22;3534;49.960;8.018;2024-03-07T09:15:24;9.10;99.90
6988;DHT22;3534;49.960;8.018;2024-03-07T09:17:51;9.10;99.90
6988;DHT22;3534;49.960;8.018;2024-03-07T09:20:18;9.00;99.90
6988;DHT22;3534;49.960;8.018;2024-03-07T09:22:45;9.10;99.90
6988;DHT22;3534;49.960;8.018;2024-03-07T09:25:14;9.10;99.90
6988;DHT22;3534;49.960;8.018;2024-03-07T09:27:42;9.20;99.90
6988;DHT22;3534;49.960;8.018;2024-03-07T09:30:10;9.20;99.90
6988;DHT22;3534;49.960;8.018;2024-03-07T09:32:40;9.20;99.90
6988;DHT22;3534;49.960;8.018;2024-03-07T09:35:08;9.10;99.90
6988;DHT22;3534;49.960;8.018;2024-03-07T09:37:38;9.20;99.90
6988;DHT22;3534;49.960;8.018;2024-03-07T09:40:06;9.30;99.90
6988;DHT22;3534;49.960;8.018;2024-03-07T09:42:34;9.20;99.90
6988;DHT22;3534;49.960;8.018;2024-03-07T09:45:04;9.30;99.90
6988;DHT22;3534;49.960;8.018;2024-03-07T09:47:34;9.40;99.90
6988;DHT22;3534;49.960;8.018;2024-03-07T09:50:01;9.50;99.90
6988;DHT22;3534;49.960;8.018;2024-03-07T09:52:29;9.50;99.90
6988;DHT22;3534;49.960;8.018;2024-03-07T09:54:56;9.60;99.90
6988;DHT22;3534;49.960;8.018;2024-03-07T09:57:25;9.70;99.90
6988;DHT22;3534;49.960;8.018;2024-03-07T09:59:53;9.70;99.90
6988;DHT22;3534;49.960;8.018;2024-03-07T10:02:21;9.80;99.90
6988;DHT22;3534;49.960;8.018;2024-03-07T10:04:53;9.90;99.90
6988;DHT22;3534;49.960;8.018;2024-03-07T10:07:21;9.90;99.90
6988;DHT22;3534;49.960;8.018;2024-03-07T10:09:48;10.00;99.90
6988;DHT22;3534;49.960;8.018;2024-03-07T10:12:17;10.00;99.90
6988;DHT22;3534;49.960;8.018;2024-03-07T10:14:56;10.10;99.90
6988;DHT22;3534;49.960;8.018;2024-03-07T10:17:23;10.20;99.90
6988;DHT22;3534;49.960;8.018;2024-03-07T10:19:52;10.10;99.90
6988;DHT22;3534;49.960;8.018;2024-03-07T10:22:20;10.20;99.90
6988;DHT22;3534;49.960;8.018;2024-03-07T10:24:50;10.30;99.90
6988;DHT22;3534;49.960;8.018;2024-03-07T10:27:18;10.30;99.90
6988;DHT22;3534;49.960;8.018;2024-03-07T10:29:46;10.40;99.90
6988;DHT22;3534;49.960;8.018;2024-03-07T10:32:13;10.40;99.90
6988;DHT22;3534;49.960;8.018;2024-03-07T10:34:40;10.50;99.90
6988;DHT22;3534;49.960;8.018;2024-03-07T10:37:13;10.40;99.90
6988;DHT22;3534;49.960;8.018;2024-03-07T10:39:42;10.50;99.90
6988;DHT22;3534;49.960;8.018;2024-03-07T10:42:13;10.50;99.90
6988;DHT22;3534;49.960;8.018;2024-03-07T10:44:43;10.60;99.90
6988;DHT22;3534;49.960;8.018;2024-03-07T10:47:15;10.60;99.90
6988;DHT22;3534;49.960;8.018;2024-03-07T10:49:53;10.70;99.90
6988;DHT22;3534;49.960;8.018;2024-03-07T10:52:28;10.80;99.90
6988;DHT22;3534;49.960;8.018;2024-03-07T10:55:04;10.90;99.90
6988;DHT22;3534;49.960;8.018;2024-03-07T10:57:41;10.90;99.90
6988;DHT22;3534;49.960;8.018;2024-03-07T11:00:09;10.90;99.90
6988;DHT22;3534;49.960;8.018;2024-03-07T11:02:55;11.00;99.90
6988;DHT22;3534;49.960;8.018;2024-03-07T11:05:25;11.10;99.90
6988;DHT22;3534;49.960;8.018;2024-03-07T11:07:57;11.10;99.90
6988;DHT22;3534;49.960;8.018;2024-03-07T11:10:24;11.20;99.90
6988;DHT22;3534;49.960;8.018;2024-03-07T11:12:51;11.20;99.90
6988;DHT22;3534;49.960;8.018;2024-03-07T11:15:19;11.20;99.90
6988;DHT22;3534;49.960;8.018;2024-03-07T11:17:48;11.30;99.90
6988;DHT22;3534;49.960;8.018;2024-03-07T11:20:20;11.30;99.90
6988;DHT22;3534;49.960;8.018;2024-03-07T11:22:47;11.40;99.90
6988;DHT22;3534;49.960;8.018;2024-03-07T11:25:17;11.50;99.90
6988;DHT22;3534;49.960;8.018;2024-03-07T11:27:51;11.60;99.90
6988;DHT22;3534;49.960;8.018;2024-03-07T11:30:19;11.60;99.90
6988;DHT22;3534;49.960;8.018;2024-03-07T11:32:48;11.70;99.90
6988;DHT22;3534;49.960;8.018;2024-03-07T11:35:16;11.80;99.90
6988;DHT22;3534;49.960;8.018;2024-03-07T11:37:48;11.80;99.90
6988;DHT22;3534;49.960;8.018;2024-03-07T11:40:47;11.90;99.90
6988;DHT22;3534;49.960;8.018;2024-03-07T11:43:16;11.90;99.90
6988;DHT22;3534;49.960;8.018;2024-03-07T11:45:43;12.00;99.90
6988;DHT22;3534;49.960;8.018;2024-03-07T11:48:17;12.10;99.90
6988;DHT22;3534;49.960;8.018;2024-03-07T11:50:46;12.10;99.90
6988;DHT22;3534;49.960;8.018;2024-03-07T11:53:14;12.20;99.90
6988;DHT22;3534;49.960;8.018;2024-03-07T11:55:42;12.30;99.90
6988;DHT22;3534;49.960;8.018;2024-03-07T11:58:12;12.40;99.90
6988;DHT22;3534;49.960;8.018;2024-03-07T12:00:42;12.50;99.90
6988;DHT22;3534;49.960;8.018;2024-03-07T12:03:10;12.60;99.90
6988;DHT22;3534;49.960;8.018;2024-03-07T12:05:39;12.70;99.90
6988;DHT22;3534;49.960;8.018;2024-03-07T12:08:07;13.00;99.90
6988;DHT22;3534;49.960;8.018;2024-03-07T12:10:35;13.20;99.90
6988;DHT22;3534;49.960;8.018;2024-03-07T12:13:04;13.30;99.90
6988;DHT22;3534;49.960;8.018;2024-03-07T12:15:33;13.40;99.90
6988;DHT22;3534;49.960;8.018;2024-03-07T12:18:02;13.50;99.90
6988;DHT22;3534;49.960;8.018;2024-03-07T12:20:35;13.50;99.90
6988;DHT22;3534;49.960;8.018;2024-03-07T12:23:02;13.50;99.90
6988;DHT22;3534;49.960;8.018;2024-03-07T12:25:29;13.60;99.90
6988;DHT22;3534;49.960;8.018;2024-03-07T12:28:00;13.60;99.90
6988;DHT22;3534;49.960;8.018;2024-03-07T12:30:33;13.60;99.90
6988;DHT22;3534;49.960;8.018;2024-03-07T12:33:01;13.70;99.90
6988;DHT22;3534;49.960;8.018;2024-03-07T12:35:29;14.00;99.90
6988;DHT22;3534;49.960;8.018;2024-03-07T12:37:57;14.20;99.90
6988;DHT22;3534;49.960;8.018;2024-03-07T12:40:24;14.30;99.90
6988;DHT22;3534;49.960;8.018;2024-03-07T12:42:54;14.50;99.90
6988;DHT22;3534;49.960;8.018;2024-03-07T12:45:21;14.60;99.90
6988;DHT22;3534;49.960;8.018;2024-03-07T12:47:51;14.70;99.90
6988;DHT22;3534;49.960;8.018;2024-03-07T12:50:20;14.80;99.90
6988;DHT22;3534;49.960;8.018;2024-03-07T12:52:46;14.80;99.90
6988;DHT22;3534;49.960;8.018;2024-03-07T12:55:15;14.70;99.90
6988;DHT22;3534;49.960;8.018;2024-03-07T12:57:43;14.60;99.90
6988;DHT22;3534;49.960;8.018;2024-03-07T13:00:11;14.60;99.90
6988;DHT22;3534;49.960;8.018;2024-03-07T13:02:45;14.50;99.90
6988;DHT22;3534;49.960;8.018;2024-03-07T13:07:43;14.60;99.90
6988;DHT22;3534;49.960;8.018;2024-03-07T13:10:10;14.50;99.90
6988;DHT22;3534;49.960;8.018;2024-03-07T13:12:40;14.50;99.90
6988;DHT22;3534;49.960;8.018;2024-03-07T13:15:09;14.50;99.90
6988;DHT22;3534;49.960;8.018;2024-03-07T13:17:36;14.40;99.90
6988;DHT22;3534;49.960;8.018;2024-03-07T13:20:04;14.40;99.90
6988;DHT22;3534;49.960;8.018;2024-03-07T13:22:37;14.30;99.90
6988;DHT22;3534;49.960;8.018;2024-03-07T13:25:06;14.20;99.90
6988;DHT22;3534;49.960;8.018;2024-03-07T13:27:40;14.10;99.90
6988;DHT22;3534;49.960;8.018;2024-03-07T13:30:10;14.10;99.90
6988;DHT22;3534;49.960;8.018;2024-03-07T13:32:49;14.00;99.90
6988;DHT22;3534;49.960;8.018;2024-03-07T13:35:18;13.90;99.90
6988;DHT22;3534;49.960;8.018;2024-03-07T13:37:46;14.00;99.90
6988;DHT22;3534;49.960;8.018;2024-03-07T13:40:15;13.90;99.90
6988;DHT22;3534;49.960;8.018;2024-03-07T13:42:52;13.90;99.90
6988;DHT22;3534;49.960;8.018;2024-03-07T13:45:21;13.90;99.90
6988;DHT22;3534;49.960;8.018;2024-03-07T13:47:48;13.80;99.90
6988;DHT22;3534;49.960;8.018;2024-03-07T13:50:16;13.80;99.90
6988;DHT22;3534;49.960;8.018;2024-03-07T13:52:45;13.70;99.90
6988;DHT22;3534;49.960;8.018;2024-03-07T13:55:33;13.70;99.90
6988;DHT22;3534;49.960;8.018;2024-03-07T13:58:05;13.70;99.90
6988;DHT22;3534;49.960;8.018;2024-03-07T14:00:44;13.60;99.90
6988;DHT22;3534;49.960;8.018;2024-03-07T14:03:37;13.60;99.90
6988;DHT22;3534;49.960;8.018;2024-03-07T14:06:12;13.50;99.90
6988;DHT22;3534;49.960;8.018;2024-03-07T14:08:56;13.60;99.90
6988;DHT22;3534;49.960;8.018;2024-03-07T14:12:08;13.50;99.90
6988;DHT22;3534;49.960;8.018;2024-03-07T14:21:49;13.30;99.90
6988;DHT22;3534;49.960;8.018;2024-03-07T14:24:53;13.30;99.90
6988;DHT22;3534;49.960;8.018;2024-03-07T14:27:30;13.30;99.90
6988;DHT22;3534;49.960;8.018;2024-03-07T14:30:23;13.20;99.90
6988;DHT22;3534;49.960;8.018;2024-03-07T14:32:53;13.20;99.90
6988;DHT22;3534;49.960;8.018;2024-03-07T14:35:24;13.30;99.90
6988;DHT22;3534;49.960;8.018;2024-03-07T14:38:02;13.30;99.90
6988;DHT22;3534;49.960;8.018;2024-03-07T14:40:31;13.30;99.90
6988;DHT22;3534;49.960;8.018;2024-03-07T14:43:01;13.20;99.90
6988;DHT22;3534;49.960;8.018;2024-03-07T14:45:34;13.10;99.90
6988;DHT22;3534;49.960;8.018;2024-03-07T14:48:02;13.10;99.90
6988;DHT22;3534;49.960;8.018;2024-03-07T14:50:30;13.10;99.90
6988;DHT22;3534;49.960;8.018;2024-03-07T14:52:58;13.00;99.90
6988;DHT22;3534;49.960;8.018;2024-03-07T14:55:25;13.00;99.90
6988;DHT22;3534;49.960;8.018;2024-03-07T14:57:52;12.90;99.90
6988;DHT22;3534;49.960;8.018;2024-03-07T15:00:20;12.90;99.90
6988;DHT22;3534;49.960;8.018;2024-03-07T15:02:53;12.90;99.90
6988;DHT22;3534;49.960;8.018;2024-03-07T15:05:23;12.90;99.90
6988;DHT22;3534;49.960;8.018;2024-03-07T15:07:50;12.90;99.90
6988;DHT22;3534;49.960;8.018;2024-03-07T15:10:22;12.90;99.90
6988;DHT22;3534;49.960;8.018;2024-03-07T15:12:52;12.90;99.90
6988;DHT22;3534;49.960;8.018;2024-03-07T15:15:20;12.80;99.90
6988;DHT22;3534;49.960;8.018;2024-03-07T15:17:50;12.90;99.90
6988;DHT22;3534;49.960;8.018;2024-03-07T15:20:17;12.80;99.90
6988;DHT22;3534;49.960;8.018;2024-03-07T15:22:50;12.80;99.90
6988;DHT22;3534;49.960;8.018;2024-03-07T15:25:17;12.80;99.90
6988;DHT22;3534;49.960;8.018;2024-03-07T15:27:44;12.80;99.90
6988;DHT22;3534;49.960;8.018;2024-03-07T15:30:14;12.70;99.90
6988;DHT22;3534;49.960;8.018;2024-03-07T15:32:43;12.70;99.90
6988;DHT22;3534;49.960;8.018;2024-03-07T15:35:11;12.80;99.90
6988;DHT22;3534;49.960;8.018;2024-03-07T15:37:39;12.60;99.90
6988;DHT22;3534;49.960;8.018;2024-03-07T15:40:07;12.70;99.90
6988;DHT22;3534;49.960;8.018;2024-03-07T15:42:38;12.60;99.90
6988;DHT22;3534;49.960;8.018;2024-03-07T15:45:06;12.60;99.90
6988;DHT22;3534;49.960;8.018;2024-03-07T15:47:37;12.60;99.90
6988;DHT22;3534;49.960;8.018;2024-03-07T15:50:06;12.60;99.90
6988;DHT22;3534;49.960;8.018;2024-03-07T15:52:33;12.60;99.90
6988;DHT22;3534;49.960;8.018;2024-03-07T15:55:00;12.60;99.90
6988;DHT22;3534;49.960;8.018;2024-03-07T15:57:27;12.60;99.90
6988;DHT22;3534;49.960;8.018;2024-03-07T15:59:54;12.60;99.90
6988;DHT22;3534;49.960;8.018;2024-03-07T16:02:21;12.60;99.90
6988;DHT22;3534;49.960;8.018;2024-03-07T16:04:48;12.60;99.90
6988;DHT22;3534;49.960;8.018;2024-03-07T16:07:16;12.50;99.90
6988;DHT22;3534;49.960;8.018;2024-03-07T16:09:43;12.50;99.90
6988;DHT22;3534;49.960;8.018;2024-03-07T16:12:10;12.40;99.90
6988;DHT22;3534;49.960;8.018;2024-03-07T16:14:37;12.40;99.90
6988;DHT22;3534;49.960;8.018;2024-03-07T16:17:03;12.40;99.90
6988;DHT22;3534;49.960;8.018;2024-03-07T16:19:33;12.30;99.90
6988;DHT22;3534;49.960;8.018;2024-03-07T16:21:59;12.30;99.90
6988;DHT22;3534;49.960;8.018;2024-03-07T16:24:28;12.30;99.90
6988;DHT22;3534;49.960;8.018;2024-03-07T16:26:55;12.30;99.90
6988;DHT22;3534;49.960;8.018;2024-03-07T16:29:22;12.20;99.90
6988;DHT22;3534;49.960;8.018;2024-03-07T16:31:48;12.20;99.90